Time;durP1;ratioP1;P1;durP2;ratioP2;P2;SDS_P1;SDS_P2;PMS_P1;PMS_P2;Temp;Humidity;BMP_temperature;BMP_pressure;BME280_temperature;BME280_humidity;BME280_pressure;Samples;Min_cycle;Max_cycle;Signal;HPM_P1;HPM_P2
2022/05/05 00:02:04;;;;;;;6.73;6.23;;;16.50;81.50;;;;;;5082706;28;20185;-87
2022/05/05 00:04:30;;;;;;;6.43;6.03;;;16.50;81.60;;;;;;5073540;28;20228;-87
2022/05/05 00:06:55;;;;;;;7.13;6.53;;;16.50;81.10;;;;;;5060762;28;20186;-88
2022/05/05 00:09:21;;;;;;;6.97;6.47;;;16.50;81.10;;;;;;5087709;28;20298;-87
2022/05/05 00:14:31;;;;;;;7.50;6.90;;;16.50;80.50;;;;;;5079116;28;20245;-87
2022/05/05 00:17:00;;;;;;;7.60;7.00;;;16.50;80.70;;;;;;5085165;28;20529;-87
2022/05/05 00:19:28;;;;;;;7.43;6.93;;;16.50;80.20;;;;;;5077005;28;20279;-87
2022/05/05 00:21:54;;;;;;;7.47;6.87;;;16.60;79.70;;;;;;5076205;28;20575;-87
2022/05/05 00:24:20;;;;;;;6.88;6.38;;;16.60;80.40;;;;;;5070956;28;20221;-87
2022/05/05 00:26:46;;;;;;;7.90;7.27;;;16.70;79.80;;;;;;5073520;28;20182;-87
2022/05/05 00:29:12;;;;;;;7.27;6.67;;;16.70;79.70;;;;;;5083963;28;20201;-87
2022/05/05 00:31:38;;;;;;;8.00;7.20;;;16.60;79.80;;;;;;5069913;28;20221;-87
2022/05/05 00:34:04;;;;;;;7.18;6.68;;;16.60;79.70;;;;;;5072264;28;20269;-87
2022/05/05 00:36:29;;;;;;;7.55;7.05;;;16.70;79.70;;;;;;5083866;28;20193;-87
2022/05/05 00:38:55;;;;;;;7.97;7.18;;;16.60;79.60;;;;;;5085857;28;20212;-87
2022/05/05 00:41:21;;;;;;;7.63;7.13;;;16.60;79.60;;;;;;5073071;28;20192;-87
2022/05/05 00:43:47;;;;;;;7.40;6.82;;;16.60;79.90;;;;;;5073393;28;20194;-87
2022/05/05 00:46:13;;;;;;;6.78;6.28;;;16.60;79.70;;;;;;5052020;28;20848;-87
2022/05/05 00:48:42;;;;;;;7.07;6.57;;;16.60;79.60;;;;;;5059611;28;20267;-87
2022/05/05 00:51:08;;;;;;;7.47;6.80;;;16.60;80.20;;;;;;5069279;28;20181;-87
2022/05/05 00:53:34;;;;;;;7.30;6.60;;;16.50;79.60;;;;;;5074069;28;20192;-87
2022/05/05 00:56:04;;;;;;;7.85;7.20;;;16.60;79.90;;;;;;5077779;28;20204;-87
2022/05/05 00:58:31;;;;;;;7.68;7.10;;;16.60;79.10;;;;;;5067554;28;20189;-87
2022/05/05 01:01:01;;;;;;;8.25;7.47;;;16.50;79.30;;;;;;5074749;28;20288;-87
2022/05/05 01:03:27;;;;;;;7.97;7.37;;;16.50;80.70;;;;;;5069861;28;20278;-87
2022/05/05 01:05:53;;;;;;;7.70;7.10;;;16.30;81.30;;;;;;5061746;28;20208;-87
2022/05/05 01:08:19;;;;;;;8.53;7.83;;;16.30;80.70;;;;;;5079666;28;20191;-87
2022/05/05 01:10:45;;;;;;;8.50;7.80;;;16.30;80.60;;;;;;5056583;28;20209;-87
2022/05/05 01:13:11;;;;;;;7.53;6.93;;;16.10;81.60;;;;;;5077937;28;20188;-87
2022/05/05 01:15:37;;;;;;;8.40;7.80;;;15.90;83.10;;;;;;5089438;28;20213;-87
2022/05/05 01:18:03;;;;;;;8.07;7.40;;;15.80;83.00;;;;;;5073727;28;20230;-86
2022/05/05 01:20:28;;;;;;;8.37;7.70;;;15.80;83.50;;;;;;5080083;28;20219;-87
2022/05/05 01:22:54;;;;;;;8.23;7.43;;;15.80;83.20;;;;;;5083077;28;20187;-87
2022/05/05 01:28:12;;;;;;;8.30;7.57;;;15.80;83.20;;;;;;5082842;28;20321;-87
2022/05/05 01:30:42;;;;;;;8.23;7.63;;;15.70;84.30;;;;;;5085169;28;20202;-87
2022/05/05 01:33:13;;;;;;;8.23;7.47;;;15.60;85.20;;;;;;5074302;28;20185;-87
2022/05/05 01:35:39;;;;;;;8.50;7.67;;;15.60;85.60;;;;;;5081028;28;20205;-87
2022/05/05 01:38:07;;;;;;;9.30;8.50;;;15.60;86.00;;;;;;5078769;28;20269;-87
2022/05/05 01:40:34;;;;;;;9.30;8.60;;;15.50;87.60;;;;;;5073641;28;20294;-87
2022/05/05 01:43:00;;;;;;;9.90;9.10;;;15.30;88.80;;;;;;5074434;28;20183;-87
2022/05/05 01:45:25;;;;;;;9.60;8.90;;;15.20;90.30;;;;;;5067055;28;20218;-87
2022/05/05 01:47:51;;;;;;;10.17;9.37;;;15.00;92.40;;;;;;5075414;28;20186;-87
2022/05/05 01:50:17;;;;;;;9.53;8.73;;;14.80;94.80;;;;;;5051873;28;20200;-87
2022/05/05 01:52:43;;;;;;;9.70;8.87;;;14.60;96.10;;;;;;5080784;28;20866;-87
2022/05/05 01:55:08;;;;;;;10.93;9.83;;;14.50;97.10;;;;;;5082436;28;20234;-87
2022/05/05 01:57:34;;;;;;;10.50;9.70;;;14.40;98.00;;;;;;5060313;28;20665;-87
2022/05/05 02:00:03;;;;;;;9.63;8.87;;;14.30;98.50;;;;;;5083462;28;20819;-87
2022/05/05 02:02:29;;;;;;;9.97;9.03;;;14.30;98.70;;;;;;5081507;28;20188;-87
2022/05/05 02:04:55;;;;;;;9.33;8.63;;;14.30;99.00;;;;;;5079758;28;20211;-87
2022/05/05 02:07:20;;;;;;;9.93;9.10;;;14.30;98.20;;;;;;5068763;28;20202;-87
2022/05/05 02:09:46;;;;;;;9.00;8.30;;;14.30;98.70;;;;;;5085097;28;20221;-87
2022/05/05 02:12:11;;;;;;;8.43;7.83;;;14.30;97.80;;;;;;5073513;28;20798;-87
2022/05/05 02:14:37;;;;;;;8.53;7.93;;;14.40;97.60;;;;;;5075728;28;20553;-87
2022/05/05 02:17:03;;;;;;;8.83;8.17;;;14.40;97.10;;;;;;5056370;28;20232;-87
2022/05/05 02:19:29;;;;;;;9.47;8.53;;;14.30;97.60;;;;;;5071286;28;20777;-87
2022/05/05 02:21:55;;;;;;;8.43;7.50;;;14.30;97.30;;;;;;5054764;28;20219;-87
2022/05/05 02:24:20;;;;;;;7.70;7.10;;;14.40;96.80;;;;;;5088085;28;20697;-87
2022/05/05 02:26:46;;;;;;;8.00;7.37;;;14.60;95.60;;;;;;5077747;28;20212;-87
2022/05/05 02:29:12;;;;;;;8.20;7.50;;;14.70;95.30;;;;;;5084197;28;20181;-87
2022/05/05 02:31:38;;;;;;;8.20;7.50;;;14.90;94.00;;;;;;5085592;28;20186;-87
2022/05/05 02:34:08;;;;;;;8.53;7.83;;;14.90;93.30;;;;;;5076463;28;20199;-87
2022/05/05 02:39:19;;;;;;;7.70;7.10;;;15.10;92.70;;;;;;5072855;28;20246;-88
2022/05/05 02:41:45;;;;;;;8.23;7.53;;;15.20;91.30;;;;;;5061276;28;20207;-87
2022/05/05 02:44:11;;;;;;;8.77;8.00;;;15.10;92.40;;;;;;5084469;28;20261;-87
2022/05/05 02:46:36;;;;;;;7.97;7.27;;;15.00;92.50;;;;;;5076581;28;20233;-87
2022/05/05 02:49:02;;;;;;;7.50;6.90;;;15.00;92.40;;;;;;5082878;28;20211;-87
2022/05/05 02:51:28;;;;;;;7.87;7.30;;;15.00;91.90;;;;;;5082131;28;20187;-88
2022/05/05 02:56:38;;;;;;;8.10;7.50;;;15.00;92.20;;;;;;5074461;28;20194;-87
2022/05/05 02:59:03;;;;;;;7.93;7.23;;;15.00;92.30;;;;;;5090176;28;20302;-87
2022/05/05 03:01:29;;;;;;;8.60;7.50;;;15.10;91.70;;;;;;5066189;28;20186;-87
2022/05/05 03:03:55;;;;;;;8.50;7.80;;;15.20;90.90;;;;;;5065073;28;20271;-87
2022/05/05 03:06:20;;;;;;;8.37;7.47;;;15.10;91.50;;;;;;5081553;28;20930;-87
2022/05/05 03:08:46;;;;;;;8.73;7.90;;;15.00;91.90;;;;;;5087634;28;20263;-87
2022/05/05 03:11:12;;;;;;;9.03;7.80;;;14.90;93.10;;;;;;5073629;28;20187;-87
2022/05/05 03:13:38;;;;;;;8.13;7.53;;;14.80;93.20;;;;;;5068502;28;20195;-87
2022/05/05 03:16:04;;;;;;;8.43;7.83;;;14.80;93.50;;;;;;5081801;28;20217;-87
2022/05/05 03:18:30;;;;;;;7.90;7.20;;;14.80;93.70;;;;;;5081213;28;20235;-87
2022/05/05 03:20:56;;;;;;;7.70;7.00;;;14.80;93.90;;;;;;5088588;28;20219;-87
2022/05/05 03:23:21;;;;;;;8.30;7.53;;;14.80;93.40;;;;;;5090627;28;20189;-87
2022/05/05 03:25:47;;;;;;;8.53;7.83;;;15.00;92.50;;;;;;5089302;28;20244;-87
2022/05/05 03:28:13;;;;;;;9.10;8.33;;;15.00;92.10;;;;;;5098130;28;20404;-87
2022/05/05 03:30:40;;;;;;;8.60;7.90;;;15.10;91.90;;;;;;5077554;28;20198;-87
2022/05/05 03:33:07;;;;;;;9.77;8.87;;;15.10;92.30;;;;;;5095052;28;20182;-87
2022/05/05 03:35:33;;;;;;;9.60;8.73;;;15.10;92.20;;;;;;5076374;28;20211;-86
2022/05/05 03:38:02;;;;;;;7.97;7.37;;;15.20;91.30;;;;;;5071708;28;20188;-87
2022/05/05 03:40:28;;;;;;;7.97;7.37;;;15.20;91.80;;;;;;5095738;28;20214;-88
2022/05/05 03:42:53;;;;;;;9.00;8.30;;;15.00;92.30;;;;;;5070235;28;20195;-88
2022/05/05 03:45:19;;;;;;;9.30;8.33;;;15.10;92.00;;;;;;5086533;28;20207;-88
2022/05/05 03:47:45;;;;;;;8.80;8.10;;;15.10;92.00;;;;;;5086560;28;20187;-89
2022/05/05 03:50:11;;;;;;;8.70;8.00;;;15.00;91.70;;;;;;5092505;28;20194;-88
2022/05/05 03:52:37;;;;;;;8.43;7.73;;;15.10;91.40;;;;;;5076868;28;20192;-88
2022/05/05 03:55:03;;;;;;;8.73;7.97;;;15.10;91.10;;;;;;5074110;28;20807;-88
2022/05/05 03:57:29;;;;;;;8.57;7.87;;;15.00;91.20;;;;;;5092323;28;20232;-88
2022/05/05 03:59:54;;;;;;;8.50;7.80;;;15.00;91.30;;;;;;5071150;28;20890;-89
2022/05/05 04:02:20;;;;;;;8.40;7.70;;;15.00;91.50;;;;;;5084217;28;20734;-88
2022/05/05 04:04:46;;;;;;;7.33;6.83;;;15.00;91.10;;;;;;5093505;28;20217;-88
2022/05/05 04:07:12;;;;;;;8.70;7.97;;;14.90;91.30;;;;;;5042600;28;20336;-88
2022/05/05 04:09:37;;;;;;;9.37;8.60;;;15.00;91.00;;;;;;5056883;28;20223;-88
2022/05/05 04:12:03;;;;;;;8.47;7.87;;;14.90;91.00;;;;;;5078165;28;20186;-88
2022/05/05 04:14:29;;;;;;;8.17;7.43;;;15.00;90.80;;;;;;5079774;28;20225;-89
2022/05/05 04:16:55;;;;;;;8.50;7.90;;;15.00;90.20;;;;;;5091967;28;20203;-88
2022/05/05 04:19:20;;;;;;;8.53;7.63;;;15.10;90.20;;;;;;5086057;28;20256;-89
2022/05/05 04:21:46;;;;;;;9.30;8.40;;;15.10;89.50;;;;;;5074864;28;20671;-89
2022/05/05 04:24:12;;;;;;;8.53;7.93;;;15.10;89.50;;;;;;5054633;28;20191;-89
2022/05/05 04:26:38;;;;;;;8.67;7.83;;;15.10;89.70;;;;;;5081244;28;20211;-87
2022/05/05 04:29:04;;;;;;;8.90;8.20;;;15.10;89.50;;;;;;5081483;28;20222;-88
2022/05/05 04:31:30;;;;;;;8.73;8.03;;;15.10;89.60;;;;;;5071368;28;20189;-88
2022/05/05 04:33:56;;;;;;;8.13;7.43;;;15.10;89.30;;;;;;5080359;28;20179;-88
2022/05/05 04:36:22;;;;;;;8.37;7.67;;;15.10;90.10;;;;;;5076646;28;20211;-88
2022/05/05 04:38:48;;;;;;;8.40;7.60;;;15.10;89.90;;;;;;5077136;28;20659;-88
2022/05/05 04:41:13;;;;;;;8.73;8.03;;;15.20;89.20;;;;;;5062676;28;20199;-88
2022/05/05 04:43:39;;;;;;;8.40;7.70;;;15.30;88.70;;;;;;5076947;28;20204;-88
2022/05/05 04:46:06;;;;;;;8.07;7.37;;;15.20;88.90;;;;;;5065400;28;20249;-88
2022/05/05 04:48:31;;;;;;;8.53;7.90;;;15.20;89.00;;;;;;5079968;28;20218;-88
2022/05/05 04:50:57;;;;;;;7.97;7.27;;;15.20;89.00;;;;;;5081476;28;20672;-88
2022/05/05 04:53:23;;;;;;;8.20;7.50;;;15.20;89.10;;;;;;5092345;28;20191;-89
2022/05/05 04:55:48;;;;;;;8.47;7.67;;;15.20;89.50;;;;;;5062020;28;20213;-90
2022/05/05 04:58:14;;;;;;;8.53;7.93;;;15.20;89.30;;;;;;5067602;28;20196;-88
2022/05/05 05:00:40;;;;;;;8.50;7.67;;;15.10;90.10;;;;;;5050134;28;20220;-88
2022/05/05 05:03:32;;;;;;;7.83;7.23;;;15.20;90.00;;;;;;5067053;28;20199;-88
2022/05/05 05:05:51;;;;;;;8.93;8.07;;;15.20;89.50;;;;;;5069051;28;20721;-88
2022/05/05 05:08:17;;;;;;;9.33;8.53;;;15.20;90.10;;;;;;5085411;28;20190;-89
2022/05/05 05:10:43;;;;;;;9.27;8.47;;;15.10;89.90;;;;;;5083266;28;20205;-88
2022/05/05 05:13:08;;;;;;;9.60;8.70;;;15.10;90.20;;;;;;5087269;28;20215;-89
2022/05/05 05:15:34;;;;;;;8.87;8.07;;;14.80;92.00;;;;;;5082918;28;20637;-88
2022/05/05 05:18:00;;;;;;;7.93;7.33;;;14.80;92.40;;;;;;5087655;28;20221;-84
2022/05/05 05:20:26;;;;;;;8.97;8.27;;;14.80;92.80;;;;;;5082375;28;20207;-89
2022/05/05 05:22:51;;;;;;;9.53;8.73;;;14.80;92.70;;;;;;5066892;28;20197;-89
2022/05/05 05:25:17;;;;;;;9.00;8.20;;;14.80;92.60;;;;;;5051491;28;20226;-89
2022/05/05 05:27:43;;;;;;;9.23;8.53;;;14.80;92.40;;;;;;5066216;28;20264;-89
2022/05/05 05:30:09;;;;;;;9.33;8.63;;;14.70;93.40;;;;;;5088154;28;20188;-89
2022/05/05 05:32:34;;;;;;;9.17;8.43;;;14.80;93.00;;;;;;5089313;28;20219;-90
2022/05/05 05:35:00;;;;;;;10.03;9.20;;;14.80;93.00;;;;;;5087417;28;20226;-89
2022/05/05 05:37:26;;;;;;;10.43;9.50;;;14.70;93.70;;;;;;5082975;28;20237;-89
2022/05/05 05:39:52;;;;;;;9.23;8.33;;;14.60;94.00;;;;;;5086275;28;20223;-90
2022/05/05 05:42:17;;;;;;;9.53;8.73;;;14.60;94.60;;;;;;5085711;28;20191;-89
2022/05/05 05:44:43;;;;;;;12.97;8.90;;;14.70;94.70;;;;;;5048264;28;20648;-89
2022/05/05 05:47:10;;;;;;;9.73;8.80;;;14.80;94.20;;;;;;5047125;28;20281;-87
2022/05/05 05:49:36;;;;;;;9.93;8.90;;;14.90;93.80;;;;;;5089087;28;20697;-87
2022/05/05 05:52:02;;;;;;;10.10;9.27;;;14.90;93.70;;;;;;5082393;28;20193;-87
2022/05/05 05:54:28;;;;;;;9.83;8.90;;;14.90;94.60;;;;;;5081716;28;20219;-88
2022/05/05 05:56:54;;;;;;;10.77;9.33;;;15.10;93.30;;;;;;5086107;28;20182;-89
2022/05/05 05:59:19;;;;;;;10.23;9.37;;;15.20;92.60;;;;;;5083849;28;20210;-88
2022/05/05 06:04:30;;;;;;;10.30;9.57;;;15.10;92.90;;;;;;5083973;28;20286;-88
2022/05/05 06:06:55;;;;;;;10.90;10.00;;;15.10;92.70;;;;;;5062560;28;20247;-89
2022/05/05 06:09:24;;;;;;;11.00;10.20;;;15.10;92.10;;;;;;5079015;28;20710;-89
2022/05/05 06:11:50;;;;;;;10.13;9.23;;;15.10;92.90;;;;;;5084922;28;20181;-88
2022/05/05 06:14:16;;;;;;;10.97;10.07;;;15.00;92.90;;;;;;5062914;28;20200;-88
2022/05/05 06:16:42;;;;;;;9.93;9.13;;;14.80;94.00;;;;;;5083203;28;20233;-88
2022/05/05 06:19:07;;;;;;;10.67;9.77;;;14.90;93.80;;;;;;5067591;28;20211;-88
2022/05/05 06:21:33;;;;;;;9.67;8.87;;;14.90;93.70;;;;;;5061153;28;20193;-89
2022/05/05 06:23:59;;;;;;;10.77;9.80;;;15.10;93.20;;;;;;5081852;28;20187;-89
2022/05/05 06:26:27;;;;;;;10.47;9.67;;;15.20;93.30;;;;;;5058624;28;20234;-88
2022/05/05 06:28:54;;;;;;;11.00;10.10;;;15.30;92.30;;;;;;5075271;28;20183;-88
2022/05/05 06:31:19;;;;;;;10.43;9.57;;;15.30;92.80;;;;;;5058860;28;20193;-87
2022/05/05 06:33:45;;;;;;;9.57;8.87;;;15.30;92.80;;;;;;5073021;28;20811;-89
2022/05/05 06:36:11;;;;;;;10.37;9.57;;;15.20;92.90;;;;;;5077804;28;20674;-88
2022/05/05 06:38:37;;;;;;;10.87;9.90;;;15.10;94.70;;;;;;5102873;28;20187;-88
2022/05/05 06:41:03;;;;;;;10.73;9.70;;;15.20;93.70;;;;;;5098583;28;20250;-88
2022/05/05 06:43:29;;;;;;;10.60;9.80;;;15.30;92.30;;;;;;5093733;28;20183;-88
2022/05/05 06:45:55;;;;;;;11.17;10.27;;;15.30;92.10;;;;;;5085541;28;20344;-87
2022/05/05 06:48:21;;;;;;;11.27;10.37;;;15.40;92.00;;;;;;5090417;28;20190;-88
2022/05/05 06:50:47;;;;;;;11.53;10.47;;;15.30;93.60;;;;;;5087322;28;20172;-88
2022/05/05 06:53:13;;;;;;;10.73;9.83;;;15.10;95.40;;;;;;5070416;28;20194;-88
2022/05/05 06:55:38;;;;;;;10.67;9.77;;;15.00;95.10;;;;;;5087156;28;20209;-87
2022/05/05 06:58:04;;;;;;;11.53;10.63;;;15.00;97.10;;;;;;5069435;28;20202;-87
2022/05/05 07:03:14;;;;;;;11.63;10.70;;;15.10;96.80;;;;;;5084544;28;20198;-88
2022/05/05 07:05:43;;;;;;;12.77;11.57;;;15.20;98.10;;;;;;5088278;28;20266;-89
2022/05/05 07:08:09;;;;;;;12.83;11.57;;;15.10;97.20;;;;;;5092496;28;20206;-90
2022/05/05 07:10:52;;;;;;;11.03;10.23;;;15.20;98.50;;;;;;5088096;28;20826;-89
2022/05/05 07:13:23;;;;;;;12.40;11.40;;;15.20;98.40;;;;;;5084296;28;20677;-90
2022/05/05 07:15:49;;;;;;;11.33;10.43;;;15.30;98.50;;;;;;5066144;28;20282;-91
2022/05/05 07:18:15;;;;;;;11.73;10.83;;;15.40;96.50;;;;;;5086181;28;20282;-89
2022/05/05 07:20:41;;;;;;;11.03;10.07;;;15.30;97.60;;;;;;5081472;28;20207;-90
2022/05/05 07:23:12;;;;;;;13.17;12.00;;;15.40;98.20;;;;;;5063901;28;20196;-90
2022/05/05 07:25:39;;;;;;;11.87;10.87;;;15.30;99.30;;;;;;5079739;28;20202;-89
2022/05/05 07:28:05;;;;;;;11.60;10.70;;;15.30;95.90;;;;;;5084961;28;20213;-89
2022/05/05 07:30:32;;;;;;;11.00;10.10;;;15.30;97.60;;;;;;5083442;28;20603;-89
2022/05/05 07:32:57;;;;;;;11.87;10.97;;;15.50;94.80;;;;;;5086640;28;20187;-89
2022/05/05 07:35:23;;;;;;;12.43;11.23;;;15.50;94.50;;;;;;5086127;28;20739;-89
2022/05/05 07:37:49;;;;;;;11.77;10.50;;;15.70;93.90;;;;;;5069608;28;20202;-88
2022/05/05 07:40:14;;;;;;;12.80;11.60;;;15.80;92.50;;;;;;5080263;28;20213;-89
2022/05/05 07:42:41;;;;;;;11.30;10.30;;;15.70;92.60;;;;;;5082990;28;20189;-89
2022/05/05 07:45:08;;;;;;;12.27;11.27;;;15.70;93.50;;;;;;5079862;28;20204;-89
2022/05/05 07:47:34;;;;;;;11.13;10.23;;;15.70;93.60;;;;;;5084737;28;20187;-88
2022/05/05 07:50:01;;;;;;;11.60;10.60;;;15.80;93.30;;;;;;5067645;28;20533;-89
2022/05/05 07:52:27;;;;;;;11.23;10.20;;;15.80;94.50;;;;;;5080648;28;20203;-88
2022/05/05 07:54:53;;;;;;;12.77;11.67;;;15.80;90.50;;;;;;5086189;28;20219;-89
2022/05/05 07:57:20;;;;;;;11.97;10.97;;;16.00;91.00;;;;;;5083645;28;20188;-91
2022/05/05 07:59:47;;;;;;;12.57;11.57;;;16.00;91.10;;;;;;5086003;28;20215;-88
2022/05/05 08:02:16;;;;;;;13.43;12.33;;;15.90;91.40;;;;;;5063686;28;20341;-90
2022/05/05 08:04:43;;;;;;;11.87;10.87;;;15.80;92.50;;;;;;5078948;28;20671;-88
2022/05/05 08:07:10;;;;;;;13.70;12.60;;;15.80;94.20;;;;;;5082782;28;20190;-88
2022/05/05 08:09:36;;;;;;;14.43;13.07;;;15.80;96.30;;;;;;5080943;28;20202;-89
2022/05/05 08:12:06;;;;;;;13.10;11.90;;;15.60;93.30;;;;;;5080713;28;20194;-88
2022/05/05 08:14:33;;;;;;;14.30;13.10;;;15.40;96.30;;;;;;5083631;28;20248;-90
2022/05/05 08:16:59;;;;;;;15.17;13.67;;;15.50;97.00;;;;;;5065625;28;20565;-88
2022/05/05 08:19:25;;;;;;;15.57;14.10;;;15.70;93.60;;;;;;5050362;28;20698;-88
2022/05/05 08:21:50;;;;;;;15.23;13.87;;;15.70;96.20;;;;;;5067052;28;20195;-89
2022/05/05 08:29:45;;;;;;;14.77;13.37;;;15.80;94.50;;;;;;5080155;28;20188;-89
2022/05/05 08:32:11;;;;;;;16.10;14.57;;;15.70;96.60;;;;;;5053049;28;20215;-88
2022/05/05 08:34:37;;;;;;;15.37;13.97;;;15.70;95.70;;;;;;5092295;28;20766;-88
2022/05/05 08:37:03;;;;;;;16.40;14.90;;;15.60;94.30;;;;;;5087380;28;20192;-90
2022/05/05 08:39:28;;;;;;;15.53;14.17;;;15.60;96.10;;;;;;5072485;28;20222;-88
2022/05/05 08:41:55;;;;;;;16.23;14.77;;;15.50;97.60;;;;;;5065179;28;20188;-88
2022/05/05 08:44:21;;;;;;;17.67;15.97;;;15.50;99.00;;;;;;5069159;28;20182;-90
2022/05/05 08:46:48;;;;;;;16.17;14.83;;;15.50;99.30;;;;;;5070235;28;20210;-88
2022/05/05 08:49:17;;;;;;;17.27;15.70;;;15.50;99.20;;;;;;5090178;28;20203;-87
2022/05/05 08:51:45;;;;;;;17.43;15.73;;;15.40;99.90;;;;;;5091788;28;20190;-89
2022/05/05 08:54:19;;;;;;;18.43;16.53;;;15.40;97.60;;;;;;5084762;28;20192;-89
2022/05/05 08:56:50;;;;;;;18.93;17.23;;;15.20;98.50;;;;;;5055548;28;20244;-89
2022/05/05 08:59:17;;;;;;;17.70;16.10;;;15.00;99.40;;;;;;5073478;28;20205;-89
2022/05/05 09:01:42;;;;;;;17.50;15.93;;;15.00;99.90;;;;;;5089809;28;20196;-89
2022/05/05 09:04:09;;;;;;;18.67;16.97;;;15.00;99.00;;;;;;5085666;28;20199;-89
2022/05/05 09:06:46;;;;;;;18.67;16.83;;;14.90;98.70;;;;;;5088808;28;20164;-89
2022/05/05 09:09:32;;;;;;;19.07;17.17;;;14.90;99.80;;;;;;5083561;28;20210;-90
2022/05/05 09:12:16;;;;;;;19.57;17.87;;;14.90;99.80;;;;;;5080352;28;20195;-90
2022/05/05 09:14:49;;;;;;;17.53;15.93;;;14.90;99.70;;;;;;5085280;28;20263;-90
2022/05/05 09:17:17;;;;;;;18.03;16.43;;;14.90;99.90;;;;;;5090429;28;20259;-89
2022/05/05 09:19:48;;;;;;;17.87;16.17;;;14.90;99.90;;;;;;5100695;28;20269;-89
2022/05/05 09:22:17;;;;;;;17.97;16.30;;;14.90;99.90;;;;;;5097075;28;20664;-89
2022/05/05 09:24:45;;;;;;;18.27;16.57;;;14.80;99.90;;;;;;5089055;28;20203;-88
2022/05/05 09:27:34;;;;;;;18.50;16.77;;;14.80;99.90;;;;;;5095478;28;20198;-89
2022/05/05 09:30:12;;;;;;;19.57;17.90;;;14.80;99.90;;;;;;5078592;28;20193;-89
2022/05/05 09:32:43;;;;;;;17.47;15.77;;;14.90;99.90;;;;;;5078422;28;20201;-89
2022/05/05 09:35:15;;;;;;;18.03;16.27;;;14.80;99.90;;;;;;5082508;28;20226;-88
2022/05/05 09:37:45;;;;;;;17.47;15.73;;;14.80;99.90;;;;;;5088310;28;20179;-88
2022/05/05 09:40:13;;;;;;;16.80;15.20;;;14.80;99.90;;;;;;5083371;28;20201;-88
2022/05/05 09:42:40;;;;;;;16.43;14.83;;;14.70;99.90;;;;;;5084261;28;20250;-87
2022/05/05 09:45:48;;;;;;;17.70;15.90;;;14.60;99.90;;;;;;5070222;28;20218;-88
2022/05/05 09:48:14;;;;;;;16.97;15.37;;;14.70;99.90;;;;;;4986722;28;20701;-88
2022/05/05 09:50:40;;;;;;;20.10;18.20;;;14.70;99.90;;;;;;5004382;28;20562;-88
2022/05/05 09:58:39;;;;;;;18.83;17.03;;;14.80;99.90;;;;;;5085215;28;20190;-90
2022/05/05 10:01:10;;;;;;;18.90;16.97;;;14.60;99.90;;;;;;5084433;28;20213;-88
2022/05/05 10:04:05;;;;;;;17.63;16.00;;;14.50;99.90;;;;;;5068993;28;20194;-87
2022/05/05 10:06:34;;;;;;;20.13;18.13;;;14.50;99.90;;;;;;5088921;28;20225;-90
2022/05/05 10:09:05;;;;;;;22.37;20.37;;;14.50;99.90;;;;;;5095399;28;20191;-92
2022/05/05 10:11:34;;;;;;;17.73;16.23;;;14.50;99.90;;;;;;5087525;28;20719;-88
2022/05/05 10:14:03;;;;;;;18.97;16.97;;;14.50;99.90;;;;;;5087584;28;20179;-91
2022/05/05 10:16:32;;;;;;;19.20;17.33;;;14.50;99.90;;;;;;5071976;28;20189;-88
2022/05/05 10:18:59;;;;;;;19.60;17.60;;;14.70;99.90;;;;;;5093069;28;20668;-88
2022/05/05 10:22:00;;;;;;;19.20;17.50;;;14.60;99.90;;;;;;5089736;28;20791;-88
2022/05/05 10:24:38;;;;;;;17.93;16.33;;;14.40;99.90;;;;;;5087819;28;20216;-87
2022/05/05 10:27:04;;;;;;;17.73;15.97;;;14.30;99.90;;;;;;5084985;28;20236;-90
2022/05/05 10:29:40;;;;;;;15.87;14.37;;;14.30;99.90;;;;;;5090258;28;20214;-92
2022/05/05 10:32:20;;;;;;;16.83;15.03;;;14.50;99.90;;;;;;5073412;28;20243;-89
2022/05/05 10:35:21;;;;;;;17.90;16.20;;;14.70;98.00;;;;;;5088165;28;20280;-89
2022/05/05 10:37:47;;;;;;;16.33;14.70;;;14.90;99.70;;;;;;5086708;28;20203;-88
2022/05/05 10:40:13;;;;;;;16.20;14.47;;;14.90;98.10;;;;;;5069576;28;20211;-89
2022/05/05 10:42:43;;;;;;;18.90;17.10;;;15.10;98.80;;;;;;5064054;28;20482;-89
2022/05/05 10:45:36;;;;;;;18.97;16.53;;;15.40;97.70;;;;;;5087992;28;20226;-89
2022/05/05 10:48:04;;;;;;;16.23;14.53;;;15.30;97.30;;;;;;5082513;28;20226;-89
2022/05/05 10:50:31;;;;;;;18.10;16.50;;;15.30;95.30;;;;;;5083649;28;20186;-91
2022/05/05 10:52:58;;;;;;;15.70;14.20;;;15.20;97.10;;;;;;5080768;28;20690;-89
2022/05/05 10:55:32;;;;;;;17.40;15.70;;;15.30;95.60;;;;;;5066805;28;20233;-88
2022/05/05 10:57:58;;;;;;;17.33;15.83;;;15.30;95.90;;;;;;5088375;28;20178;-89
2022/05/05 11:00:40;;;;;;;17.57;15.67;;;15.20;93.70;;;;;;5080432;28;20269;-88
2022/05/05 11:03:09;;;;;;;16.10;14.47;;;15.30;95.90;;;;;;5084132;28;20247;-89
2022/05/05 11:05:39;;;;;;;18.03;16.33;;;15.20;92.60;;;;;;5067144;28;20203;-91
2022/05/05 11:08:08;;;;;;;17.27;15.50;;;15.00;97.90;;;;;;5089264;28;20180;-87
2022/05/05 11:10:47;;;;;;;18.23;16.50;;;14.90;98.00;;;;;;5082519;28;20232;-88
2022/05/05 11:13:31;;;;;;;17.90;16.20;;;14.80;97.20;;;;;;5086232;28;20566;-88
2022/05/05 11:22:13;;;;;;;15.43;13.93;;;15.10;94.30;;;;;;5083484;28;20237;-87
2022/05/05 11:24:47;;;;;;;14.20;12.93;;;15.20;91.50;;;;;;5081232;28;20215;-87
2022/05/05 11:27:21;;;;;;;16.67;15.17;;;15.30;92.10;;;;;;5081274;28;20187;-87
2022/05/05 11:29:52;;;;;;;16.63;15.13;;;15.40;90.90;;;;;;5083781;28;20187;-88
2022/05/05 11:32:27;;;;;;;15.20;13.83;;;15.40;91.80;;;;;;5082226;28;20243;-87
2022/05/05 11:34:53;;;;;;;15.50;14.00;;;15.40;89.70;;;;;;5084005;28;20217;-87
2022/05/05 11:37:19;;;;;;;17.07;15.27;;;15.50;90.80;;;;;;5066973;28;20197;-86
2022/05/05 11:39:48;;;;;;;18.37;16.67;;;15.60;94.60;;;;;;5090983;28;20213;-87
2022/05/05 11:42:14;;;;;;;16.13;14.53;;;15.70;95.00;;;;;;5081817;28;20190;-87
2022/05/05 11:44:44;;;;;;;18.47;16.67;;;15.60;94.00;;;;;;5083616;28;20273;-88
2022/05/05 11:47:15;;;;;;;17.77;16.03;;;15.70;94.80;;;;;;5085512;28;20211;-87
2022/05/05 11:49:46;;;;;;;17.40;15.70;;;15.50;92.90;;;;;;5064942;28;20201;-88
2022/05/05 11:52:25;;;;;;;17.13;14.90;;;15.60;91.50;;;;;;5082700;28;20208;-88
2022/05/05 11:54:55;;;;;;;16.47;15.03;;;15.70;91.20;;;;;;5085278;28;20265;-87
2022/05/05 11:57:38;;;;;;;16.50;14.80;;;15.80;93.10;;;;;;5081843;28;20184;-87
2022/05/05 12:02:51;;;;;;;15.20;13.80;;;15.80;91.00;;;;;;5092942;28;20548;-87
2022/05/05 12:05:18;;;;;;;17.73;15.93;;;16.00;87.20;;;;;;5088539;28;20217;-87
2022/05/05 12:07:46;;;;;;;17.43;15.60;;;16.10;85.20;;;;;;5073372;28;20211;-86
2022/05/05 12:10:14;;;;;;;17.80;16.03;;;15.70;89.20;;;;;;5089481;28;20232;-87
2022/05/05 12:12:45;;;;;;;15.87;14.17;;;15.50;92.20;;;;;;5080762;28;20195;-89
2022/05/05 12:15:12;;;;;;;16.13;14.73;;;15.30;93.10;;;;;;5068894;28;20230;-88
2022/05/05 12:17:43;;;;;;;16.63;15.03;;;15.50;93.90;;;;;;5091873;28;20206;-88
2022/05/05 12:20:11;;;;;;;16.93;15.37;;;15.60;92.40;;;;;;5099181;28;20207;-86
2022/05/05 12:22:42;;;;;;;17.73;15.83;;;15.60;93.90;;;;;;5094130;28;20340;-86
2022/05/05 12:25:16;;;;;;;18.13;16.47;;;15.40;94.20;;;;;;5083066;28;20211;-88
2022/05/05 12:28:00;;;;;;;15.60;14.20;;;15.20;94.70;;;;;;5068417;28;20194;-87
2022/05/05 12:30:44;;;;;;;15.87;14.30;;;15.20;95.70;;;;;;5080768;28;20784;-87
2022/05/05 12:33:15;;;;;;;17.43;15.90;;;15.60;95.00;;;;;;5083263;28;20194;-87
2022/05/05 12:35:43;;;;;;;18.53;15.63;;;15.70;93.10;;;;;;5059887;28;20244;-86
2022/05/05 12:38:13;;;;;;;16.30;14.80;;;15.80;93.20;;;;;;5081615;28;20208;-87
2022/05/05 12:40:43;;;;;;;16.17;14.57;;;15.90;93.00;;;;;;5083934;28;20207;-88
2022/05/05 12:43:14;;;;;;;16.30;14.80;;;16.00;92.80;;;;;;5069809;28;20200;-89
2022/05/05 12:45:41;;;;;;;16.37;14.93;;;16.20;90.70;;;;;;5084221;28;20243;-88
2022/05/05 12:48:09;;;;;;;16.93;15.43;;;16.10;91.60;;;;;;5084608;28;20219;-88
2022/05/05 12:50:40;;;;;;;18.63;16.83;;;16.10;94.30;;;;;;5069430;28;20197;-88
2022/05/05 13:01:33;;;;;;;18.03;16.30;;;16.10;89.90;;;;;;5084265;28;20195;-87
2022/05/05 13:04:08;;;;;;;17.92;16.17;;;16.40;93.40;;;;;;5094224;28;20162;-88
2022/05/05 13:06:37;;;;;;;17.37;15.30;;;16.60;89.90;;;;;;5091034;28;20207;-88
2022/05/05 13:09:05;;;;;;;19.77;16.73;;;16.60;87.90;;;;;;5066382;28;20604;-88
2022/05/05 13:11:32;;;;;;;17.37;15.73;;;16.50;92.00;;;;;;5087209;28;20198;-88
2022/05/05 13:13:58;;;;;;;16.88;15.27;;;16.70;89.20;;;;;;5082989;28;20651;-88
2022/05/05 13:16:27;;;;;;;18.57;16.80;;;16.70;92.90;;;;;;5065370;28;20242;-88
2022/05/05 13:18:53;;;;;;;17.63;16.05;;;16.70;92.70;;;;;;5083491;28;20188;-87
2022/05/05 13:21:19;;;;;;;18.23;16.42;;;16.80;93.40;;;;;;5086417;28;20220;-88
2022/05/05 13:23:44;;;;;;;17.98;16.17;;;17.00;90.20;;;;;;5088786;28;20622;-87
2022/05/05 13:26:11;;;;;;;18.38;16.67;;;17.20;91.70;;;;;;5090717;28;20202;-87